Cornish, ME (04020)

2:46 PM EDT on April 24, 2017 (GMT -0400)
MCNHM1 | | Change Station

Elev 331 ft 43.81 °N, 70.78 °W | Updated 4 minutes ago

Partly Cloudy
Partly Cloudy
71.0 °F
Feels Like 71.0 °F
N
-
Wind Variable Wind from North

Today
High -- | Low -- °F
--% Chance of Precip.
Yesterday
High -- | Low -- °F
Precip. -- in
Pressure 30.13 in
Visibility 10.0 miles
Clouds Few 8500 ft
Dew Point Not available.
Humidity Not available.
Rainfall 0.00 in
Snow Depth Not available.
5:45 AM 7:37 PM
Waning Crescent, 4% visible
METAR KIZG 241754Z AUTO 34010G16KT 10SM FEW085 22/00 A3012 RMK AO2 SLP202 T02170000 10228 20078 56008
Pressure 30.13 in
Visibility 10.0 miles
Clouds Few 8500 ft
Dew Point Not available.
Humidity Not available.
Rainfall 0.00 in
Snow Depth Not available.
5:45 AM 7:37 PM
Waning Crescent, 4% visible
METAR KIZG 241754Z AUTO 34010G16KT 10SM FEW085 22/00 A3012 RMK AO2 SLP202 T02170000 10228 20078 56008

Get Severe Weather Alerts

Thanks for signing up!

Be on the lookout for a verification email in your inbox.

You'll start receiving the daily forecast at 8 AM.

×

10-Day Weather Forecast

Almanac

Astronomy

Apr. 24, 2017 Rise Set
Actual Time
Civil Twilight
Nautical Twilight
Astronomical Twilight
Moon
Length of Visible Light
Length of Day
Tomorrow will be .
, % of the Moon is Illuminated

Today's Extremes

State Highs State Lows

Community

WunderPhotos

WunderBlog® & News

Nearby

Air Quality

  Air Quality AQ Index Pollutant
Not available.

Snow Depth

Station Depth Elevation

Earthquake Activity

City Distance Mag. Time & Date
Minimum magnitude displayed is 2.5.

Coastal Water Temperatures

Place Temperature

Stations

Nearby Weather Stations

Station Location Temp. Windchill Dew Point Humidity Wind Precip. Elev Updated Type
                   

Watches & Warnings

There are currently no watches in effect.